West Columbia, West Virginia
Current Conditions -  °F | °C
As of 6:15 AM on Saturday 25 Oct 2014 (Local Time) from K3I2 Reporting Station
Clear Clear  
Wind Chill: 37°   Ceiling: Unl
Heat Index: 37°   Visibility: 10mi
Dew Point: 36°   Wind: 0mph
Humidity: 93%   Direction: NA
Pressure: 30.04"   Gusts: NA
Location:  38.98°N, 82.06°W
Report Text: K3I2 251015Z AUTO 00000KT 10SM CLR 03/02 A3004 RMK AO2
Loading
Personal Weather Stations






























Interactive Weather Map
Tropical Storm Tracking
New forecast layout! Learn more

10-Day Weather Forecast

Advertisements
Track Severe Weather on mobile